Capt. Tracy L. Cheramie — WDG2169 — position and weather

sailwx.info

Track history (hours):
 
Tides and Currents Weather Stations Pressure Air Temp Water Temp Dewpoint Dewpoint Depression Visibility Wind Speed Wind Dir Waves Ship Positions

Capt. Tracy L. Cheramie

Owner: Florida Marine, LLC, Mandeville, LA. More information available from US FCC via Universal Licensing System and Coast Guard Vessel Documentation Center.

Last reported at 2017-Oct-13 08:02 UTC. Time now 2017-Oct-18 06:12 UTC.
Position N 30°24' W 086°53'.

Length 27 m; draft 3 m.

Type: Other ship. MMSI: 367512870.

Date/timePositionNaut miles runAvg speedWind from/ knotsBaromVisibWave heightAir tempDewpointWater temp
2017-Oct-13 08:02N 30°24' W 086°53'0 6.9
2017-Oct-13 08:00N 30°24' W 086°53'3 6.9
2017-Oct-13 07:31N 30°24' W 086°49'8 6.5
2017-Oct-13 06:15N 30°24' W 086°39'1 5.8
2017-Oct-13 06:00N 30°24' W 086°38'3 6.1
2017-Oct-13 05:30N 30°24' W 086°34'4 7.2
2017-Oct-13 05:00N 30°26' W 086°30'4 7.4
2017-Oct-13 04:30N 30°26' W 086°26'4 7.4
2017-Oct-13 04:00N 30°26' W 086°22'4 7.3
2017-Oct-13 03:30N 30°26' W 086°18'2 3.2
2017-Oct-13 03:00N 30°27' W 086°16'6 0.3
2017-Oct-12 08:16N 30°28' W 086°09'1 2.0
2017-Oct-12 08:00N 30°28' W 086°09'1 1.6
2017-Oct-12 07:30N 30°27' W 086°10'2 3.2
2017-Oct-12 07:00N 30°26' W 086°12'2 3.9
2017-Oct-12 06:30N 30°26' W 086°14'0 0.8
2017-Oct-12 06:00N 30°27' W 086°14'3 6.3
2017-Oct-12 05:30N 30°27' W 086°18'4 7.3
2017-Oct-12 05:00N 30°26' W 086°22'4 7.3
2017-Oct-12 04:30N 30°26' W 086°26'4 7.4
2017-Oct-12 04:00N 30°25' W 086°31'4 7.2
2017-Oct-12 03:29N 30°24' W 086°35'9 6.4
2017-Oct-12 02:09N 30°24' W 086°45'1 6.2
2017-Oct-12 02:00N 30°24' W 086°46'3 6.9
2017-Oct-12 01:31N 30°24' W 086°50'  
Track history (hours):
 
Tides and Currents Weather Stations Pressure Air Temp Water Temp Dewpoint Dewpoint Depression Visibility Wind Speed Wind Dir Waves Ship Positions

Capt. Tracy L. Cheramie

Owner: Florida Marine, LLC, Mandeville, LA. More information available from US FCC via Universal Licensing System and Coast Guard Vessel Documentation Center.

Last reported at 2017-Oct-13 08:02 UTC. Time now 2017-Oct-18 06:12 UTC.
Position N 30°24' W 086°53'.

Length 27 m; draft 3 m.

Type: Other ship. MMSI: 367512870.

Date/timePositionNaut miles runAvg speedWind from/ knotsBaromVisibWave heightAir tempDewpointWater temp
2017-Oct-13 08:02N 30°24' W 086°53'0 6.9
2017-Oct-13 08:00N 30°24' W 086°53'3 6.9
2017-Oct-13 07:31N 30°24' W 086°49'8 6.5
2017-Oct-13 06:15N 30°24' W 086°39'1 5.8
2017-Oct-13 06:00N 30°24' W 086°38'3 6.1
2017-Oct-13 05:30N 30°24' W 086°34'4 7.2
2017-Oct-13 05:00N 30°26' W 086°30'4 7.4
2017-Oct-13 04:30N 30°26' W 086°26'4 7.4
2017-Oct-13 04:00N 30°26' W 086°22'4 7.3
2017-Oct-13 03:30N 30°26' W 086°18'2 3.2
2017-Oct-13 03:00N 30°27' W 086°16'6 0.3
2017-Oct-12 08:16N 30°28' W 086°09'1 2.0
2017-Oct-12 08:00N 30°28' W 086°09'1 1.6
2017-Oct-12 07:30N 30°27' W 086°10'2 3.2
2017-Oct-12 07:00N 30°26' W 086°12'2 3.9
2017-Oct-12 06:30N 30°26' W 086°14'0 0.8
2017-Oct-12 06:00N 30°27' W 086°14'3 6.3
2017-Oct-12 05:30N 30°27' W 086°18'4 7.3
2017-Oct-12 05:00N 30°26' W 086°22'4 7.3
2017-Oct-12 04:30N 30°26' W 086°26'4 7.4
2017-Oct-12 04:00N 30°25' W 086°31'4 7.2
2017-Oct-12 03:29N 30°24' W 086°35'9 6.4
2017-Oct-12 02:09N 30°24' W 086°45'1 6.2
2017-Oct-12 02:00N 30°24' W 086°46'3 6.9
2017-Oct-12 01:31N 30°24' W 086°50'  

Dump ship's entire track history